createdAt,value
2022-08-31T00:00:14.398Z,101166.28
2022-08-31T00:03:00.134Z,101173.50
2022-08-31T00:05:28.153Z,101179.09
2022-08-31T00:07:55.543Z,101166.88
2022-08-31T00:10:32.793Z,101172.66
2022-08-31T00:13:06.757Z,101168.19
2022-08-31T00:15:35.579Z,101176.84
2022-08-31T00:18:02.538Z,101169.63
2022-08-31T00:20:33.493Z,101172.09
2022-08-31T00:23:05.144Z,101183.84
2022-08-31T00:25:33.638Z,101174.63
2022-08-31T00:28:00.389Z,101166.16
2022-08-31T00:30:27.295Z,101177.59
2022-08-31T00:32:54.128Z,101173.44
2022-08-31T00:35:24.184Z,101174.13
2022-08-31T00:37:50.851Z,101175.06
2022-08-31T00:40:17.677Z,101177.41
2022-08-31T00:42:44.408Z,101168.53
2022-08-31T00:45:11.271Z,101177.50
2022-08-31T00:47:39.208Z,101181.75
2022-08-31T00:50:09.827Z,101178.94
2022-08-31T00:52:41.167Z,101178.06
2022-08-31T00:55:17.922Z,101175.06
2022-08-31T00:57:48.111Z,101174.75
2022-08-31T01:00:19.884Z,101173.94
2022-08-31T01:02:48.044Z,101182.56
2022-08-31T01:05:16.211Z,101181.84
2022-08-31T01:07:47.672Z,101178.75
2022-08-31T01:10:19.312Z,101184.94
2022-08-31T01:12:48.888Z,101178.75
2022-08-31T01:15:18.191Z,101185.94
2022-08-31T01:17:48.387Z,101191.44
2022-08-31T01:20:30.322Z,101190.31
2022-08-31T01:23:05.818Z,101183.06
2022-08-31T01:25:36.157Z,101181.44
2022-08-31T01:28:05.742Z,101185.03
2022-08-31T01:30:33.057Z,101190.03
2022-08-31T01:33:00.634Z,101192.91
2022-08-31T01:35:28.773Z,101187.59
2022-08-31T01:37:56.779Z,101193.03
2022-08-31T01:40:44.272Z,101196.22
2022-08-31T01:43:11.152Z,101191.78
2022-08-31T01:45:38.074Z,101193.94
2022-08-31T01:48:05.054Z,101187.50
2022-08-31T01:50:31.874Z,101190.22
2022-08-31T01:52:59.328Z,101200.16
2022-08-31T01:55:26.119Z,101199.06
2022-08-31T01:57:53.057Z,101191.41
2022-08-31T02:00:22.842Z,101196.63
2022-08-31T02:02:49.544Z,101197.28
2022-08-31T02:05:17.040Z,101197.75
2022-08-31T02:07:45.707Z,101194.25
2022-08-31T02:10:13.359Z,101191.47
2022-08-31T02:12:40.561Z,101192.22
2022-08-31T02:15:09.207Z,101197.06
2022-08-31T02:17:35.945Z,101187.13
2022-08-31T02:20:09.978Z,101188.09
2022-08-31T02:22:36.709Z,101183.22
2022-08-31T02:25:05.471Z,101187.56
2022-08-31T02:27:36.854Z,101185.38
2022-08-31T02:30:12.123Z,101179.06
2022-08-31T02:32:38.954Z,101179.56
2022-08-31T02:35:06.269Z,101183.25
2022-08-31T02:37:33.097Z,101178.91
2022-08-31T02:40:02.529Z,101185.78
2022-08-31T02:42:49.169Z,101184.59
2022-08-31T02:45:18.525Z,101183.22
2022-08-31T02:47:45.311Z,101180.28
2022-08-31T02:50:23.500Z,101179.56
2022-08-31T02:52:50.577Z,101178.88
2022-08-31T02:55:17.892Z,101183.22
2022-08-31T02:57:44.646Z,101181.44
2022-08-31T03:00:12.812Z,101180.81
2022-08-31T03:02:41.126Z,101175.44
2022-08-31T03:05:08.774Z,101175.84
2022-08-31T03:07:38.299Z,101170.34
2022-08-31T03:10:08.299Z,101179.84
2022-08-31T03:12:36.664Z,101182.00
2022-08-31T03:15:06.565Z,101175.59
2022-08-31T03:17:33.784Z,101178.25
2022-08-31T03:20:02.745Z,101173.75
2022-08-31T03:22:30.072Z,101176.69
2022-08-31T03:24:57.190Z,101173.91
2022-08-31T03:27:24.652Z,101182.66
2022-08-31T03:29:52.527Z,101185.56
2022-08-31T03:32:24.377Z,101190.66
2022-08-31T03:34:57.053Z,101192.72
2022-08-31T03:37:24.416Z,101185.81
2022-08-31T03:39:53.623Z,101181.19
2022-08-31T03:42:20.331Z,101184.44
2022-08-31T03:44:47.962Z,101193.31
2022-08-31T03:47:22.410Z,101198.63
2022-08-31T03:49:50.264Z,101192.09
2022-08-31T03:52:24.108Z,101196.38
2022-08-31T03:55:02.952Z,101192.25
2022-08-31T03:57:29.937Z,101191.38
2022-08-31T03:59:57.611Z,101192.44
2022-08-31T04:02:43.566Z,101193.53
2022-08-31T04:05:31.221Z,101191.84
2022-08-31T04:08:01.007Z,101199.22
2022-08-31T04:10:48.981Z,101200.22
2022-08-31T04:13:35.735Z,101203.13
2022-08-31T04:16:22.095Z,101197.91
2022-08-31T04:18:51.874Z,101203.34
2022-08-31T04:21:22.837Z,101202.00
2022-08-31T04:23:51.951Z,101202.53
2022-08-31T04:26:34.206Z,101198.72
2022-08-31T04:29:04.282Z,101194.97
2022-08-31T04:31:31.241Z,101193.38
2022-08-31T04:33:58.218Z,101204.31
2022-08-31T04:36:26.854Z,101203.69
2022-08-31T04:38:57.255Z,101202.63
2022-08-31T04:41:27.149Z,101201.66
2022-08-31T04:43:57.991Z,101198.22
2022-08-31T04:46:26.356Z,101194.59
2022-08-31T04:48:54.649Z,101204.66
2022-08-31T04:51:24.690Z,101204.53
2022-08-31T04:53:52.812Z,101201.84
2022-08-31T04:56:23.417Z,101207.97
2022-08-31T04:58:53.468Z,101208.75
2022-08-31T05:01:24.230Z,101207.78
2022-08-31T05:03:53.271Z,101207.53
2022-08-31T05:06:23.318Z,101213.22
2022-08-31T05:09:19.303Z,101220.91
2022-08-31T05:11:50.404Z,101216.16
2022-08-31T05:14:17.765Z,101216.25
2022-08-31T05:16:51.476Z,101217.72
2022-08-31T05:19:20.368Z,101220.25
2022-08-31T05:21:48.319Z,101215.25
2022-08-31T05:24:19.137Z,101217.72
2022-08-31T05:26:48.970Z,101217.94
2022-08-31T05:29:22.061Z,101214.84
2022-08-31T05:31:52.570Z,101225.38
2022-08-31T05:34:21.722Z,101221.69
2022-08-31T05:36:56.212Z,101220.06
2022-08-31T05:39:23.978Z,101222.34
2022-08-31T05:41:50.944Z,101221.31
2022-08-31T05:44:21.101Z,101216.22
2022-08-31T05:46:52.483Z,101221.19
2022-08-31T05:49:30.503Z,101230.03
2022-08-31T05:52:00.146Z,101228.13
2022-08-31T05:54:27.603Z,101231.69
2022-08-31T05:56:54.556Z,101234.69
2022-08-31T05:59:30.955Z,101230.06
2022-08-31T06:01:59.110Z,101232.63
2022-08-31T06:04:28.312Z,101238.03
2022-08-31T06:06:55.490Z,101234.88
2022-08-31T06:09:25.693Z,101241.78
2022-08-31T06:11:54.132Z,101245.66
2022-08-31T06:14:24.445Z,101239.47
2022-08-31T06:16:56.157Z,101234.13
2022-08-31T06:19:22.975Z,101231.59
2022-08-31T06:21:51.255Z,101240.22
2022-08-31T06:24:22.787Z,101231.44
2022-08-31T06:26:57.973Z,101241.66
2022-08-31T06:29:32.242Z,101235.50
2022-08-31T06:32:00.701Z,101237.84
2022-08-31T06:34:29.195Z,101230.03
2022-08-31T06:36:59.043Z,101237.91
2022-08-31T06:39:31.681Z,101233.19
2022-08-31T06:42:30.795Z,101243.41
2022-08-31T06:44:58.965Z,101247.63
2022-08-31T06:47:43.028Z,101247.63
2022-08-31T06:50:12.360Z,101256.31
2022-08-31T06:52:39.685Z,101259.94
2022-08-31T06:55:24.237Z,101258.03
2022-08-31T06:58:09.209Z,101269.38
2022-08-31T07:01:16.226Z,101270.72
2022-08-31T07:04:10.891Z,101268.91
2022-08-31T07:06:40.946Z,101275.03
2022-08-31T07:09:10.267Z,101278.66
2022-08-31T07:11:44.719Z,101284.50
2022-08-31T07:15:27.879Z,101274.97
2022-08-31T07:18:20.215Z,101286.13
2022-08-31T07:20:47.192Z,101282.34
2022-08-31T07:23:14.008Z,101290.47
2022-08-31T07:25:49.924Z,101289.25
2022-08-31T07:28:16.822Z,101294.72
2022-08-31T07:30:44.739Z,101282.38
2022-08-31T07:35:56.384Z,101287.25
2022-08-31T07:39:05.233Z,101282.00
2022-08-31T07:41:52.148Z,101287.25
2022-08-31T07:44:20.357Z,101295.28
2022-08-31T07:46:48.161Z,101294.91
2022-08-31T07:49:17.113Z,101294.91
2022-08-31T07:51:56.361Z,101297.00
2022-08-31T07:54:46.553Z,101295.19
2022-08-31T07:57:27.217Z,101296.50
2022-08-31T08:00:08.531Z,101295.41
2022-08-31T08:02:46.177Z,101295.66
2022-08-31T08:05:27.330Z,101296.78
2022-08-31T08:08:15.839Z,101298.75
2022-08-31T08:11:06.574Z,101292.22
2022-08-31T08:13:54.258Z,101286.56
2022-08-31T08:16:28.566Z,101294.22
2022-08-31T08:19:14.890Z,101287.56
2022-08-31T08:21:43.409Z,101288.03
2022-08-31T08:24:10.517Z,101290.59
2022-08-31T08:27:05.551Z,101287.44
2022-08-31T08:29:56.025Z,101288.78
2022-08-31T08:32:27.564Z,101296.31
2022-08-31T08:34:54.273Z,101298.38
2022-08-31T08:37:35.724Z,101293.50
2022-08-31T08:40:21.875Z,101298.47
2022-08-31T08:42:48.821Z,101297.28
2022-08-31T08:45:15.620Z,101295.91
2022-08-31T08:47:43.063Z,101298.84
2022-08-31T08:50:10.466Z,101298.34
2022-08-31T08:52:46.823Z,101298.09
2022-08-31T08:55:22.044Z,101298.72
2022-08-31T08:57:52.060Z,101301.63
2022-08-31T09:00:25.774Z,101298.59
2022-08-31T09:03:21.831Z,101312.19
2022-08-31T09:06:45.490Z,101300.84
2022-08-31T09:09:37.641Z,101303.00
2022-08-31T09:12:22.978Z,101296.78
2022-08-31T09:15:08.097Z,101310.31
2022-08-31T09:17:52.069Z,101305.31
2022-08-31T09:20:19.032Z,101303.81
2022-08-31T09:22:52.091Z,101302.78
2022-08-31T09:25:33.190Z,101307.13
2022-08-31T09:28:33.875Z,101309.72
2022-08-31T09:31:00.733Z,101300.97
2022-08-31T09:33:31.487Z,101307.44
2022-08-31T09:36:18.283Z,101299.44
2022-08-31T09:38:47.090Z,101308.13
2022-08-31T09:41:29.072Z,101297.34
2022-08-31T09:44:24.024Z,101292.59
2022-08-31T09:46:56.528Z,101301.28
2022-08-31T09:49:33.529Z,101299.06
2022-08-31T09:52:51.595Z,101301.03
2022-08-31T09:55:25.291Z,101295.19
2022-08-31T09:57:56.319Z,101289.88
2022-08-31T10:00:41.191Z,101297.72
2022-08-31T10:03:23.471Z,101292.59
2022-08-31T10:05:52.230Z,101283.94
2022-08-31T10:08:47.153Z,101292.03
2022-08-31T10:11:20.628Z,101289.78
2022-08-31T10:14:00.238Z,101296.13
2022-08-31T10:16:34.918Z,101290.97
2022-08-31T10:19:09.824Z,101297.97
2022-08-31T10:21:51.308Z,101300.16
2022-08-31T10:24:34.597Z,101292.78
2022-08-31T10:27:10.371Z,101285.69
2022-08-31T10:29:40.214Z,101304.88
2022-08-31T10:32:21.076Z,101289.84
2022-08-31T10:35:07.635Z,101290.09
2022-08-31T10:37:43.633Z,101299.63
2022-08-31T10:40:16.466Z,101303.47
2022-08-31T10:43:09.342Z,101302.97
2022-08-31T10:45:42.717Z,101298.53
2022-08-31T10:48:13.136Z,101297.13
2022-08-31T10:50:51.460Z,101299.59
2022-08-31T10:53:43.199Z,101293.53
2022-08-31T10:56:39.672Z,101294.84
2022-08-31T10:59:52.889Z,101291.41
2022-08-31T11:02:45.123Z,101297.56
2022-08-31T11:05:56.629Z,101298.63
2022-08-31T11:09:01.881Z,101294.66
2022-08-31T11:11:31.586Z,101301.09
2022-08-31T11:14:27.114Z,101302.59
2022-08-31T11:17:13.394Z,101296.66
2022-08-31T11:19:55.547Z,101299.09
2022-08-31T11:22:39.050Z,101303.38
2022-08-31T11:25:31.688Z,101300.78
2022-08-31T11:28:09.193Z,101306.53
2022-08-31T11:30:44.669Z,101289.69
2022-08-31T11:33:21.384Z,101293.66
2022-08-31T11:36:06.127Z,101299.25
2022-08-31T11:39:15.165Z,101300.03
2022-08-31T11:41:46.796Z,101300.50
2022-08-31T11:44:39.303Z,101290.06
2022-08-31T11:47:44.284Z,101286.50
2022-08-31T11:50:32.677Z,101279.31
2022-08-31T11:53:16.410Z,101283.56
2022-08-31T11:55:52.448Z,101285.03
2022-08-31T11:58:25.843Z,101285.47
2022-08-31T12:01:01.571Z,101282.63
2022-08-31T12:03:39.130Z,101269.66
2022-08-31T12:06:10.654Z,101262.69
2022-08-31T12:08:54.512Z,101273.97
2022-08-31T12:11:41.738Z,101263.94
2022-08-31T12:14:31.117Z,101271.22
2022-08-31T12:17:09.670Z,101272.03
2022-08-31T12:20:01.362Z,101267.53
2022-08-31T12:23:31.208Z,101262.75
2022-08-31T12:26:29.331Z,101256.84
2022-08-31T12:29:04.981Z,101256.13
2022-08-31T12:31:37.258Z,101261.00
2022-08-31T12:34:12.880Z,101244.75
2022-08-31T12:36:40.110Z,101244.75
2022-08-31T12:39:19.240Z,101245.13
2022-08-31T12:41:52.835Z,101251.81
2022-08-31T12:44:22.766Z,101244.50
2022-08-31T12:47:23.608Z,101245.28
2022-08-31T12:50:23.254Z,101239.91
2022-08-31T12:53:19.171Z,101239.25
2022-08-31T12:55:59.217Z,101242.19
2022-08-31T12:58:52.098Z,101236.06
2022-08-31T13:01:23.948Z,101232.16
2022-08-31T13:03:55.078Z,101229.31
2022-08-31T13:06:37.198Z,101230.94
2022-08-31T13:09:05.744Z,101232.03
2022-08-31T13:11:40.890Z,101218.84
2022-08-31T13:14:20.570Z,101222.88
2022-08-31T13:16:50.767Z,101237.88
2022-08-31T13:19:32.782Z,101228.34
2022-08-31T13:22:06.877Z,101229.47
2022-08-31T13:24:42.322Z,101222.13
2022-08-31T13:27:24.460Z,101221.81
2022-08-31T13:29:53.357Z,101216.72
2022-08-31T13:32:34.315Z,101211.31
2022-08-31T13:35:04.301Z,101216.41
2022-08-31T13:37:37.453Z,101209.19
2022-08-31T13:40:12.404Z,101207.56
2022-08-31T13:42:43.336Z,101204.47
2022-08-31T13:45:30.163Z,101199.97
2022-08-31T13:48:03.886Z,101196.94
2022-08-31T13:50:35.982Z,101202.00
2022-08-31T13:55:52.478Z,101201.53
2022-08-31T13:58:31.178Z,101207.75
2022-08-31T14:01:18.664Z,101197.06
2022-08-31T14:03:57.037Z,101201.59
2022-08-31T14:06:34.958Z,101197.59
2022-08-31T14:09:16.591Z,101198.16
2022-08-31T14:11:53.436Z,101191.44
2022-08-31T14:14:35.567Z,101185.81
2022-08-31T14:17:03.415Z,101183.88
2022-08-31T14:19:32.360Z,101190.38
2022-08-31T14:22:30.561Z,101189.50
2022-08-31T14:25:00.345Z,101181.91
2022-08-31T14:27:28.005Z,101178.53
2022-08-31T14:29:55.053Z,101181.91
2022-08-31T14:32:22.652Z,101181.09
2022-08-31T14:34:50.981Z,101185.63
2022-08-31T14:37:28.707Z,101180.50
2022-08-31T14:40:05.628Z,101183.31
2022-08-31T14:42:37.306Z,101173.47
2022-08-31T14:45:05.689Z,101179.72
2022-08-31T14:47:43.856Z,101175.19
2022-08-31T14:50:13.653Z,101168.47
2022-08-31T14:52:45.746Z,101176.03
2022-08-31T14:55:14.747Z,101176.00
2022-08-31T14:57:45.747Z,101168.47
2022-08-31T15:00:22.904Z,101166.19
2022-08-31T15:02:53.205Z,101162.22
2022-08-31T15:05:23.285Z,101161.09
2022-08-31T15:07:52.882Z,101163.63
2022-08-31T15:10:22.221Z,101167.00
2022-08-31T15:12:50.316Z,101162.84
2022-08-31T15:15:20.246Z,101163.38
2022-08-31T15:17:49.110Z,101161.13
2022-08-31T15:20:18.251Z,101162.53
2022-08-31T15:22:45.205Z,101160.56
2022-08-31T15:25:12.813Z,101159.75
2022-08-31T15:27:44.038Z,101163.41
2022-08-31T15:30:12.579Z,101159.47
2022-08-31T15:32:39.855Z,101154.69
2022-08-31T15:35:07.865Z,101162.28
2022-08-31T15:37:34.754Z,101154.13
2022-08-31T15:40:04.472Z,101154.97
2022-08-31T15:42:36.636Z,101160.03
2022-08-31T15:45:04.159Z,101157.19
2022-08-31T15:47:54.785Z,101166.19
2022-08-31T15:50:26.997Z,101157.19
2022-08-31T15:53:05.199Z,101158.88
2022-08-31T15:55:36.208Z,101149.59
2022-08-31T15:58:04.309Z,101154.69
2022-08-31T16:00:32.531Z,101149.34
2022-08-31T16:03:02.118Z,101154.72
2022-08-31T16:05:38.709Z,101151.56
2022-08-31T16:08:11.448Z,101146.19
2022-08-31T16:10:46.225Z,101155.19
2022-08-31T16:13:15.754Z,101145.38
2022-08-31T16:15:51.088Z,101152.16
2022-08-31T16:18:22.984Z,101145.94
2022-08-31T16:20:50.454Z,101147.06
2022-08-31T16:23:17.820Z,101151.88
2022-08-31T16:25:48.426Z,101142.88
2022-08-31T16:28:18.856Z,101146.53
2022-08-31T16:30:45.615Z,101148.19
2022-08-31T16:33:12.697Z,101147.09
2022-08-31T16:35:39.754Z,101146.00
2022-08-31T16:38:07.025Z,101148.88
2022-08-31T16:40:35.541Z,101140.97
2022-08-31T16:43:02.923Z,101144.38
2022-08-31T16:45:29.968Z,101145.22
2022-08-31T16:48:16.672Z,101135.34
2022-08-31T16:50:47.503Z,101153.94
2022-08-31T16:53:17.913Z,101149.38
2022-08-31T16:55:47.255Z,101148.88
2022-08-31T16:58:21.561Z,101142.94
2022-08-31T17:01:12.922Z,101150.78
2022-08-31T17:03:41.749Z,101157.59
2022-08-31T17:06:08.642Z,101156.75
2022-08-31T17:08:44.041Z,101163.50
2022-08-31T17:11:21.072Z,101161.78
2022-08-31T17:13:50.419Z,101159.78
2022-08-31T17:16:21.148Z,101160.66
2022-08-31T17:18:51.130Z,101165.97
2022-08-31T17:21:21.049Z,101167.66
2022-08-31T17:23:51.170Z,101164.56
2022-08-31T17:26:21.435Z,101158.34
2022-08-31T17:28:52.966Z,101166.50
2022-08-31T17:31:20.306Z,101168.78
2022-08-31T17:33:46.882Z,101173.53
2022-08-31T17:36:15.979Z,101161.44
2022-08-31T17:38:42.543Z,101166.22
2022-08-31T17:41:09.710Z,101174.38
2022-08-31T17:43:39.258Z,101171.00
2022-08-31T17:46:08.664Z,101175.72
2022-08-31T17:48:36.084Z,101179.09
2022-08-31T17:51:06.098Z,101173.97
2022-08-31T17:53:34.064Z,101165.72
2022-08-31T17:56:01.266Z,101175.56
2022-08-31T17:58:28.526Z,101173.38
2022-08-31T18:00:56.008Z,101173.06
2022-08-31T18:03:22.930Z,101176.41
2022-08-31T18:05:49.620Z,101178.31
2022-08-31T18:08:17.466Z,101174.34
2022-08-31T18:10:52.023Z,101176.75
2022-08-31T18:13:24.249Z,101176.94
2022-08-31T18:15:51.270Z,101171.84
2022-08-31T18:18:18.241Z,101182.25
2022-08-31T18:20:45.387Z,101180.41
2022-08-31T18:23:12.879Z,101192.31
2022-08-31T18:25:40.801Z,101192.84
2022-08-31T18:28:07.420Z,101195.28
2022-08-31T18:30:37.413Z,101198.94
2022-08-31T18:33:06.064Z,101200.47
2022-08-31T18:35:32.655Z,101199.34
2022-08-31T18:38:02.153Z,101200.69
2022-08-31T18:40:47.249Z,101209.94
2022-08-31T18:43:49.388Z,101211.75
2022-08-31T18:46:16.276Z,101211.31
2022-08-31T18:49:01.143Z,101221.72
2022-08-31T18:51:40.662Z,101221.56
2022-08-31T18:54:08.903Z,101222.53
2022-08-31T18:56:36.431Z,101226.13
2022-08-31T18:59:03.279Z,101230.25
2022-08-31T19:01:33.804Z,101230.13
2022-08-31T19:04:01.920Z,101230.94
2022-08-31T19:06:30.883Z,101230.78
2022-08-31T19:08:57.817Z,101235.84
2022-08-31T19:11:25.083Z,101236.56
2022-08-31T19:13:53.114Z,101229.78
2022-08-31T19:16:26.757Z,101241.31
2022-08-31T19:18:57.511Z,101231.66
2022-08-31T19:21:30.219Z,101237.09
2022-08-31T19:24:00.204Z,101252.53
2022-08-31T19:26:31.411Z,101250.25
2022-08-31T19:28:59.202Z,101257.88
2022-08-31T19:31:27.677Z,101252.06
2022-08-31T19:33:57.619Z,101242.53
2022-08-31T19:36:24.564Z,101239.69
2022-08-31T19:38:51.784Z,101240.00
2022-08-31T19:41:25.620Z,101244.06
2022-08-31T19:44:04.110Z,101243.72
2022-08-31T19:46:34.315Z,101239.50
2022-08-31T19:49:01.028Z,101242.88
2022-08-31T19:51:29.636Z,101244.56
2022-08-31T19:53:56.735Z,101240.50
2022-08-31T19:56:30.330Z,101251.78
2022-08-31T19:58:58.906Z,101247.78
2022-08-31T20:01:33.801Z,101248.97
2022-08-31T20:04:14.393Z,101246.28
2022-08-31T20:06:45.278Z,101237.44
2022-08-31T20:09:12.986Z,101246.94
2022-08-31T20:11:40.252Z,101242.16
2022-08-31T20:14:07.500Z,101247.53
2022-08-31T20:16:41.454Z,101245.06
2022-08-31T20:19:11.089Z,101243.53
2022-08-31T20:21:40.482Z,101239.72
2022-08-31T20:24:10.285Z,101241.50
2022-08-31T20:26:43.586Z,101238.75
2022-08-31T20:29:16.041Z,101245.22
2022-08-31T20:31:45.458Z,101245.44
2022-08-31T20:34:19.319Z,101249.84
2022-08-31T20:36:48.183Z,101246.13
2022-08-31T20:39:16.496Z,101251.56
2022-08-31T20:41:47.242Z,101243.38
2022-08-31T20:44:21.311Z,101243.03
2022-08-31T20:47:09.767Z,101250.16
2022-08-31T20:49:39.876Z,101247.94
2022-08-31T20:52:07.235Z,101254.19
2022-08-31T20:54:34.821Z,101259.34
2022-08-31T20:57:05.822Z,101257.06
2022-08-31T20:59:33.566Z,101253.41
2022-08-31T21:02:03.216Z,101252.47
2022-08-31T21:04:32.509Z,101250.38
2022-08-31T21:07:01.026Z,101247.41
2022-08-31T21:09:28.725Z,101245.97
2022-08-31T21:11:58.211Z,101252.91
2022-08-31T21:14:27.547Z,101250.69
2022-08-31T21:16:55.620Z,101246.03
2022-08-31T21:19:23.315Z,101240.34
2022-08-31T21:21:56.074Z,101242.19
2022-08-31T21:24:22.998Z,101237.94
2022-08-31T21:26:59.256Z,101241.41
2022-08-31T21:29:30.312Z,101243.00
2022-08-31T21:32:03.254Z,101239.44
2022-08-31T21:34:31.002Z,101231.16
2022-08-31T21:36:57.684Z,101228.13
2022-08-31T21:39:24.847Z,101239.25
2022-08-31T21:41:51.986Z,101237.34
2022-08-31T21:44:22.965Z,101237.84
2022-08-31T21:46:50.889Z,101235.47
2022-08-31T21:49:18.986Z,101243.03
2022-08-31T21:51:55.075Z,101241.03
2022-08-31T21:54:24.574Z,101235.41
2022-08-31T21:56:57.249Z,101237.88
2022-08-31T21:59:26.838Z,101235.81
2022-08-31T22:01:58.924Z,101236.38
2022-08-31T22:04:28.201Z,101235.03
2022-08-31T22:06:55.877Z,101235.38
2022-08-31T22:09:23.864Z,101238.09
2022-08-31T22:11:54.755Z,101244.56
2022-08-31T22:14:26.194Z,101242.19
2022-08-31T22:16:54.204Z,101242.91
2022-08-31T22:19:25.654Z,101233.25
2022-08-31T22:21:55.451Z,101234.72
2022-08-31T22:24:27.782Z,101236.41
2022-08-31T22:26:58.087Z,101232.97
2022-08-31T22:29:27.438Z,101236.88
2022-08-31T22:31:58.139Z,101225.28
2022-08-31T22:34:25.666Z,101243.66
2022-08-31T22:36:53.711Z,101239.41
2022-08-31T22:39:26.535Z,101241.72
2022-08-31T22:41:53.937Z,101242.34
2022-08-31T22:44:26.684Z,101237.13
2022-08-31T22:46:56.109Z,101235.88
2022-08-31T22:49:23.207Z,101240.09
2022-08-31T22:51:49.897Z,101234.78
2022-08-31T22:54:19.168Z,101232.69
2022-08-31T22:56:46.352Z,101232.13
2022-08-31T22:59:17.866Z,101220.59
2022-08-31T23:01:52.030Z,101234.09
2022-08-31T23:04:20.179Z,101223.72
2022-08-31T23:06:48.821Z,101228.59
2022-08-31T23:09:19.396Z,101228.38
2022-08-31T23:11:46.595Z,101230.94
2022-08-31T23:14:13.197Z,101222.50
2022-08-31T23:16:45.344Z,101231.38
2022-08-31T23:19:21.651Z,101230.19
2022-08-31T23:21:52.728Z,101229.06
2022-08-31T23:24:30.073Z,101221.78
2022-08-31T23:27:03.941Z,101229.06
2022-08-31T23:29:34.928Z,101217.06
2022-08-31T23:32:02.805Z,101210.28
2022-08-31T23:34:29.542Z,101214.03
2022-08-31T23:36:57.016Z,101219.00
2022-08-31T23:39:25.073Z,101209.78
2022-08-31T23:41:53.239Z,101216.97
2022-08-31T23:44:20.780Z,101218.56
2022-08-31T23:46:48.194Z,101217.31
2022-08-31T23:49:16.666Z,101210.53
2022-08-31T23:51:44.044Z,101210.22
2022-08-31T23:54:12.442Z,101217.97
2022-08-31T23:56:42.456Z,101217.66
2022-08-31T23:59:28.737Z,101222.75
